Tiempo atmosférico en la estación meteorológica de Asturias Aeropuerto, Asturias (127 m.)



Fecha
DESCASC
Temp. máxima en grados centígrados (hora)
DESCASC
Temp. mínima en grados centígrados (hora)
DESCASC
Temp. media en grados centígrados
DESCASC
Racha de viento máxima en m/sg (hora)
DESCASC
Velocidad máxima media en intervalos de 10 minutos(hora)
DESCASC
Precipitaciones diarias en mm
DESCASC
Precipitaciones de 00:00 a 06:00 en mm
DESCASC
Precipitaciones de 06:00 a 12:00 en mm
DESCASC
Precipitaciones de 12:00 a 18:00 en mm
DESCASC
Precipitaciones de 18:00 a 24:00 en mm
DESCASC
25-04-2019 -- (--) -- (--) -- -- (--) -- (--) -- 0 0 -- 1.3
24-04-2019 17.4 (17:10) 5 (06:40) 11.2 19.72 (20:00) 11.39 (20:00) 1.5 0 0.5 0.3 0.7
23-04-2019 14.6 (15:00) 9 (23:50) 11.8 10.28 (03:50) 5.28 (18:50) 13.2 1.6 7.6 4 0
22-04-2019 19.1 (16:30) 7.4 (00:00) 13.3 7.22 (07:40) 4.44 (22:00) 2.7 0 0 0 2.7
21-04-2019 15.5 (15:30) 8.5 (00:00) 12 8.33 (09:30) 5 (21:40) 0 0 0 0 0
20-04-2019 17.3 (11:40) 8 (00:00) 12.6 8.89 (09:30) 4.44 (09:40) 0 0 0 0 0
19-04-2019 17.5 (18:10) 10.2 (00:00) 13.8 12.5 (18:30) 6.67 (18:50) 3 2.7 0.3 0 0
18-04-2019 16 (14:00) 9.3 (00:00) 12.7 9.17 (17:00) 5.56 (01:30) 4.3 0.2 0 0 4.1
17-04-2019 20.5 (12:50) 9.5 (00:00) 15 10.28 (18:40) 7.22 (18:30) 0 0 0 0 0
16-04-2019 16.4 (13:20) 7.5 (00:00) 11.9 12.5 (15:00) 7.5 (14:50) 0 0 0 0 0
15-04-2019 17.3 (10:00) 9.8 (00:00) 13.5 13.33 (18:00) 9.17 (18:30) 7.5 0 4.7 1.9 0.9
14-04-2019 21 (16:20) 12.5 (00:00) 16.8 6.67 (09:40) 5.28 (20:20) 0 0 0 0 0
13-04-2019 18.7 (17:30) 7.4 (00:00) 13.1 7.22 (09:30) 4.17 (19:00) 0 0 0 0 0
12-04-2019 15.6 (16:50) 5.1 (00:00) 10.4 9.72 (16:40) 6.11 (19:20) 0 0 0 0 0
11-04-2019 14.1 (16:50) 6.8 (00:00) 10.5 8.89 (14:30) 5.83 (12:40) 0 0 0 0 0
10-04-2019 14 (16:30) 8 (00:00) 11 14.44 (08:20) 9.72 (08:30) 7.6 4 3.4 0.1 0.1
09-04-2019 17.1 (16:50) 7.9 (00:00) 12.5 12.5 (18:40) 7.78 (16:40) 0.8 0 0.3 0 0.5
08-04-2019 15.9 (13:30) 7.3 (00:00) 11.6 12.5 (04:20) 8.33 (04:20) 2 2 0 0 0
07-04-2019 14.1 (13:30) 7.1 (00:00) 10.6 12.5 (00:10) 6.67 (00:20) 2.9 1.2 0 0 1.7
06-04-2019 12 (13:00) 4.2 (00:00) 8.1 17.5 (18:50) 10 (18:50) 15.3 0 0 2.6 12.7
05-04-2019 14.2 (15:00) 6.2 (00:00) 10.2 14.44 (18:40) 10.28 (18:40) 4.9 2.6 0 1.7 0.6
04-04-2019 13.5 (13:20) 3.8 (00:00) 8.6 12.78 (00:20) 7.78 (16:30) 4.2 1.7 0 0.3 2.2
03-04-2019 10.8 (14:40) 5.4 (00:00) 8.1 18.06 (18:00) 12.78 (17:50) 17.1 5 4.4 7.1 0.6
02-04-2019 13.5 (14:10) 7.5 (00:00) 10.5 10.28 (19:40) 7.5 (19:30) 0.1 0 0 0 0.1
01-04-2019 14.8 (15:50) 5.7 (00:00) 10.3 6.67 (06:20) 4.72 (06:10) 0 0 0 0 0
31-03-2019 16.6 (12:50) 7 (00:00) 11.8 7.22 (14:40) 4.72 (22:10) 0 0 0 0 0
30-03-2019 14.6 (18:30) 6.8 (00:00) 10.7 -- (--) -- (--) 0 0 0 0 0
29-03-2019 15 (14:10) 3.5 (00:00) 9.3 -- (--) -- (--) 0 0 0 0 0
28-03-2019 14.9 (13:40) 2.4 (00:00) 8.6 13.33 (19:20) 8.33 (18:00) 0 0 0 0 0
27-03-2019 14.5 (13:10) 5.1 (00:00) 9.8 13.89 (16:30) 8.89 (00:10) 0 0 0 0 0

Gráficas

Temp. máximas Temp. mínimas Temp. medias Precipitaciones Rachas de viento máximas Velocidades máximas media en intervalos de 10 minutos

Datos horarios

Fecha y hora oficial Temperatura (ºC) Velocidad del viento (km/h) Dirección del viento Racha (km/h) Dirección de racha Precipitación (mm) Presión (hPa) Tendencia (hPa) Humedad (%)
2019-04-25 23:00:00 9.2 17 Sudoeste 32 Sudoeste 0 996.6 3.3 82
2019-04-25 22:00:00 8.6 21 Sudoeste 37 Sudoeste 0.3 995.5 3.2 85
2019-04-25 21:00:00 8.7 19 Sudoeste 65 Sudoeste 0.9 995.1 4 85
2019-04-25 20:00:00 10.5 24 Oeste 68 Sudoeste 0.1 993.3 3.8 73
2019-04-25 19:00:00 12.2 29 Oeste 50 Oeste 0 992.3 3.6 60
2019-04-25 18:00:00 12.2 31 Sudoeste 68 Oeste 0 991.1 2.9 59
2019-04-25 17:00:00 14.9 29 Oeste 52 Oeste 0 989.5 -- 43
2019-04-25 16:00:00 16 30 Sudoeste 52 Sudoeste 0 988.7 0.5 39
2019-04-25 15:00:00 17.4 27 Oeste 52 Sudoeste 0 988.2 0.4 36
2019-04-25 14:00:00 -- -- -- -- -- -- -- -- --
2019-04-25 13:00:00 15.5 30 Sudoeste 59 Sudoeste 0 988.2 0.8 42
2019-04-25 12:00:00 13.7 27 Sudoeste 55 Sudoeste 0 987.8 0.4 48
2019-04-25 11:00:00 13.1 30 Sudoeste 52 Sudoeste 0 987.7 1.1 51
2019-04-25 10:00:00 11.4 28 Sudoeste 42 Sudoeste 0 987.4 1.6 57
2019-04-25 09:00:00 9.6 15 Sudoeste 39 Sudoeste 0 987.4 2.1 63
2019-04-25 08:00:00 9.3 21 Sudoeste 37 Sudoeste 0 986.6 1.6 62
2019-04-25 07:00:00 9.1 17 Sudoeste 33 Sudoeste 0 985.8 1.2 64
2019-04-25 06:00:00 9.5 19 Sudoeste 32 Sudoeste 0 985.3 0.9 62
2019-04-25 05:00:00 9.8 18 Sudoeste 32 Sudoeste 0 985 0.4 59
2019-04-25 04:00:00 9.7 18 Sudoeste 41 Sudoeste 0 984.6 0.3 60
2019-04-25 03:00:00 8.8 10 Sudoeste 32 Oeste 0 984.4 0.6 65
2019-04-25 02:00:00 8.1 9 Sudoeste 22 Sudoeste 0 984.6 1.7 73
2019-04-25 01:00:00 9.6 14 Sudoeste 30 Sudoeste 0 984.3 1.7 67
2019-04-25 00:00:00 9.4 12 Sudoeste 22 Sur 0 983.8 1.8 72
2019-04-24 23:00:00 10.6 18 Sudoeste 35 Oeste 0 982.9 1.6 63
2019-04-24 22:00:00 9.8 21 Sudoeste 35 Sudoeste 0 982.6 3.1 73
2019-04-24 21:00:00 10.8 24 Oeste 55 Sudoeste 0.2 982 3.3 69
2019-04-24 20:00:00 10.4 41 Oeste 71 Oeste 0.5 981.3 3 80
2019-04-24 19:00:00 13.8 33 Oeste 65 Oeste 0 979.5 2 58
2019-04-24 18:00:00 14 27 Oeste 46 Oeste 0 978.7 1 66
2019-04-24 17:00:00 16.3 19 Oeste 58 Oeste 0 978.3 0.5 53
2019-04-24 16:00:00 15.4 22 Sudoeste 63 Oeste 0 977.5 -0.4 56
2019-04-24 15:00:00 14.6 22 Oeste 41 Oeste 0 977.7 -0.7 64
2019-04-24 14:00:00 13.1 5 Norte 17 Este 0 977.8 -0.7 75
2019-04-24 13:00:00 11.1 6 Este 13 Este 0.3 977.9 -1.1 81
2019-04-24 12:00:00 9.7 3 Sudeste 11 Sur 0.4 978.4 -0.8 78
2019-04-24 11:00:00 8.9 5 Sudoeste 22 Sudoeste 0.1 978.5 -1.2 79
2019-04-24 10:00:00 7.7 16 Sur 26 Sur 0 979 -1.3 77
2019-04-24 09:00:00 7 8 Sudoeste 17 Sudoeste 0 979.2 -2.2 79
2019-04-24 08:00:00 6 8 Sudoeste 21 Sudoeste 0 979.7 -2.2 82
2019-04-24 07:00:00 5.6 3 Sur 11 Sudeste 0 980.3 -1.8 85
2019-04-24 06:00:00 5.4 7 Sur 13 Sur 0 981.4 -1.4 87
2019-04-24 05:00:00 6.2 6 Sudeste 17 Sur 0 981.9 -1.4 78
2019-04-24 04:00:00 7.6 13 Sudoeste 21 Sudoeste 0 982.1 -1.3 70
2019-04-24 03:00:00 7.8 12 Sudoeste 18 Sudoeste 0 982.8 -0.7 68
2019-04-24 02:00:00 7.2 8 Sudoeste 22 Oeste 0 983.3 0.1 74
2019-04-24 01:00:00 8.2 9 Sudoeste 18 Sudoeste 0 983.4 0.7 69
2019-04-24 00:00:00 9 11 Sudoeste 18 Sudoeste 0 983.5 1.5 66
2019-04-23 23:00:00 9.5 11 Sudoeste 35 Sudoeste 0 983.2 1.7 67
2019-04-23 22:00:00 10.7 13 Oeste 22 Oeste 0 982.7 1.5 63
2019-04-23 21:00:00 11.3 14 Oeste 30 Oeste 0 982 0.8 63
2019-04-23 20:00:00 12.5 18 Oeste 30 Oeste 0 981.5 1 60
2019-04-23 19:00:00 11.3 18 Oeste 30 Oeste 0 981.2 1.8 70
2019-04-23 18:00:00 10.1 10 Sudoeste 21 Oeste 1.3 981.2 2.5 88
2019-04-23 17:00:00 10.4 4 Sur 24 Oeste 2.7 980.5 1.7 86
2019-04-23 16:00:00 13.8 9 Nordeste 18 Nordeste 0 979.4 0.4 67
2019-04-23 15:00:00 14.2 9 Norte 17 Norte 0 978.7 -0.2 61
2019-04-23 14:00:00 13.3 8 Norte 17 Norte 0 978.8 -0.1 69
2019-04-23 13:00:00 13.7 3 Este 13 Este 0 979 0.4 75
2019-04-23 12:00:00 10.8 4 Sudoeste 13 Sur 1 978.9 0.6 88
2019-04-23 11:00:00 9.9 4 Sur 9 Oeste 0.9 978.9 1 92
2019-04-23 10:00:00 9.8 5 Sur 17 Sudoeste 2.5 978.6 1 95
2019-04-23 09:00:00 9.7 0 Calma 8 Sudoeste 1.5 978.3 0.8 97
2019-04-23 08:00:00 9.5 6 Noroeste 26 Oeste 1.7 977.9 0.1 96
2019-04-23 07:00:00 10.2 4 Noroeste 11 Noroeste 0 977.6 -0.7 94
2019-04-23 06:00:00 10.4 3 Noroeste 17 Oeste 0 977.5 -1.2 90
2019-04-23 05:00:00 10.9 13 Noroeste 30 Oeste 0 977.8 -1 84
2019-04-23 04:00:00 10.7 13 Noroeste 37 Oeste 0.1 978.3 -0.7 90
2019-04-23 03:00:00 11.3 4 Oeste 9 Oeste 0.8 978.7 -0.4 97
2019-04-23 02:00:00 11.1 2 Nordeste 11 Sur 0.5 978.8 -1.1 96
2019-04-23 01:00:00 11.3 3 Sudoeste 8 Sudoeste 0.2 979 -0.8 96
2019-04-23 00:00:00 11.2 6 Norte 13 Sur 0.8 979.1 -0.4 95
2019-04-22 23:00:00 12.5 5 Norte 21 Noroeste 1.7 979.9 0.2 91
2019-04-22 22:00:00 13.3 16 Oeste 26 Oeste 0.2 979.8 -0.3 86
2019-04-22 21:00:00 15.2 7 Sudeste 15 Este 0 979.5 -0.6 63
2019-04-22 20:00:00 16.2 6 Este 17 Este 0 979.7 -1.1 58
2019-04-22 19:00:00 17.4 7 Este 22 Sudeste 0 980.1 -1.5 58
2019-04-22 18:00:00 18.2 8 Este 18 Este 0 980.1 -2.3 57
2019-04-22 17:00:00 18.3 9 Este 21 Este 0 980.8 -2.6 57
2019-04-22 16:00:00 18.5 9 Este 17 Este 0 981.6 -3.1 54
2019-04-22 15:00:00 18.3 9 Norte 15 Norte 0 982.4 -3.4 57
2019-04-22 14:00:00 17.7 7 Este 17 Nordeste 0 983.4 -3.4 68
2019-04-22 13:00:00 17.1 7 Este 15 Nordeste 0 984.7 -3.1 70
2019-04-22 12:00:00 15.9 8 Sudeste 15 Sudeste 0 985.8 -2.6 70
2019-04-22 11:00:00 13.8 3 Sudeste 18 Sur 0 986.8 -2.1 75
2019-04-22 10:00:00 10.8 14 Sudoeste 26 Sur 0 987.8 -1.4 83
2019-04-22 09:00:00 8.7 13 Sur 21 Sudoeste 0 988.4 -1.8 91
2019-04-22 08:00:00 8.1 13 Sur 26 Sudoeste 0 988.9 -2.4 93
2019-04-22 07:00:00 8.1 8 Sur 21 Sur 0 989.2 -3 93
2019-04-22 06:00:00 8 10 Sur 17 Sur 0 990.2 -3.1 95
2019-04-22 05:00:00 7.6 6 Sur 13 Sudoeste 0 991.3 -3.1 94
2019-04-22 04:00:00 8.1 8 Sur 9 Sur 0 992.2 -3.2 95
2019-04-22 03:00:00 8.6 8 Sur -- -- 0 993.3 -2.9 91
2019-04-22 02:00:00 8.7 12 Sudeste 13 Sudeste 0 994.4 -2.3 97
2019-04-22 01:00:00 9.3 10 Sudeste 13 Sudeste 0 995.4 -1.4 98
2019-04-22 00:00:00 9.5 10 Sudeste 18 Este 0 996.2 -0.7 97
2019-04-21 23:00:00 10.9 16 Sudeste 21 Sudeste 0 996.7 -0.2 97
2019-04-21 22:00:00 11.1 15 Sudeste 22 Sudeste 0 996.8 -0.3 95
2019-04-21 21:00:00 12.5 12 Este 18 Este 0 996.9 -0.7 92
2019-04-21 20:00:00 13.1 4 Nordeste 15 Este 0 996.9 -1.2 93
2019-04-21 19:00:00 14 6 Este 15 Nordeste 0 997.1 -1.9 88
2019-04-21 18:00:00 14.2 9 Norte 15 Norte 0 997.6 -2 87
2019-04-21 17:00:00 14.8 8 Norte 17 Norte 0 998.1 -2.5 86
2019-04-21 16:00:00 14.7 9 Norte 18 Norte 0 999 -2.4 85
2019-04-21 15:00:00 14.9 11 Noroeste 18 Noroeste 0 999.6 -2.1 85
2019-04-21 14:00:00 14.6 13 Noroeste 22 Oeste 0 1000.6 -1.5 87
2019-04-21 13:00:00 14.3 12 Noroeste 21 Oeste 0 1001.4 -0.6 86
2019-04-21 12:00:00 14.3 12 Noroeste 21 Noroeste 0 1001.7 -0.6 84
2019-04-21 11:00:00 13.7 4 Sur 24 Sudeste 0 1002.1 -0.3 73
2019-04-21 10:00:00 12.1 11 Oeste 30 Sudoeste 0 1002 -0.6 83
2019-04-21 09:00:00 9.9 9 Sudoeste 17 Sudoeste 0 1002.3 -0.8 90
2019-04-21 08:00:00 8.7 10 Sudoeste 15 Sudoeste 0 1002.4 -1 87
2019-04-21 07:00:00 9.7 7 Sudoeste 15 Sudoeste 0 1002.6 -1 94
2019-04-21 06:00:00 10 6 Sudoeste 9 Sudoeste 0 1003.1 -1.2 95
2019-04-21 05:00:00 9.4 7 Sudoeste 15 Sudoeste 0 1003.4 -1.7 93
2019-04-21 04:00:00 10.2 10 Sudoeste 18 Sudoeste 0 1003.6 -1.9 94
2019-04-21 03:00:00 10.7 8 Sudoeste 13 Sudoeste 0 1004.3 -1.5 99
2019-04-21 02:00:00 12.2 5 Sudoeste 9 Oeste 0 1005.1 -1 99
2019-04-21 01:00:00 12.4 6 Oeste 9 Oeste 0 1005.5 -0.3 99
2019-04-21 00:00:00 11.9 3 Oeste 5 Oeste 0 1005.8 0.3 98
2019-04-20 23:00:00 12.3 4 Norte 8 Norte 0 1006.1 0.6 98
2019-04-20 22:00:00 12.7 2 Noroeste 4 Oeste 0 1005.8 0.3 96
2019-04-20 21:00:00 13.9 0 Calma 9 Norte 0 1005.5 -0.1 92
2019-04-20 20:00:00 15.2 4 Nordeste 9 Norte 0 1005.5 -0.6 85
2019-04-20 19:00:00 15.7 6 Norte 15 Norte 0 1005.5 -1.1 82
2019-04-20 18:00:00 15.5 8 Norte 15 Norte 0 1005.6 -1.3 82
2019-04-20 17:00:00 15.8 9 Norte 15 Norte 0 1006.1 -1.4 78
2019-04-20 16:00:00 16.1 10 Norte 17 Norte 0 1006.6 -1.2 68
2019-04-20 15:00:00 16.3 9 Norte 15 Norte 0 1006.9 -1.6 72
2019-04-20 14:00:00 16.4 10 Norte 17 Noroeste 0 1007.5 -1.3 70
2019-04-20 13:00:00 16.7 8 Nordeste 13 Nordeste 0 1007.8 -0.9 72
2019-04-20 12:00:00 16.9 5 Este 9 Este 0 1008.5 -0.5 70
2019-04-20 11:00:00 16.1 4 Noroeste 21 Sur 0 1008.8 0 72
2019-04-20 10:00:00 12.9 15 Sur 32 Sur 0 1008.7 0.6 80
2019-04-20 09:00:00 10 11 Sudoeste 15 Sudoeste 0 1009 1 91
2019-04-20 08:00:00 8.5 3 Sur 8 Sudeste 0 1008.8 0.5 93
2019-04-20 07:00:00 9.7 3 Sur 21 Sudoeste 0 1008.1 -0.5 88
2019-04-20 06:00:00 9.6 9 Sur 17 Sur 0 1008 -1 90
2019-04-20 05:00:00 8.6 5 Sur 9 Sur 0 1008.3 -0.7 94
2019-04-20 04:00:00 9.3 3 Sur 8 Sur 0 1008.6 -0.3 96
2019-04-20 03:00:00 9.8 0 Calma 11 Norte 0 1009 0 90
2019-04-20 02:00:00 11.9 10 Norte 15 Norte 0 1009 -0.2 80
2019-04-20 01:00:00 11.2 2 Sudoeste 13 Sudoeste 0 1008.9 0.3 83
2019-04-20 00:00:00 11.9 9 Sudeste 26 Sudeste 0 1009 1.7 77
2019-04-19 23:00:00 10.6 15 Sudeste 18 Este 0 1009.2 2.4 88
2019-04-19 22:00:00 13.2 12 Este 17 Este 0 1008.6 2.2 79
2019-04-19 21:00:00 15.4 11 Este 22 Este 0 1007.3 1.7 67
2019-04-19 20:00:00 16.3 11 Este 28 Este 0 1006.8 1.5 69
2019-04-19 19:00:00 16.6 22 Este 45 Este 0 1006.4 1.3 66
2019-04-19 18:00:00 17.2 21 Este 41 Este 0 1005.6 1 67
2019-04-19 17:00:00 16.6 13 Este 30 Este 0 1005.3 1 76
2019-04-19 16:00:00 16.1 15 Este 28 Este 0 1005.1 0.7 78
2019-04-19 15:00:00 16.6 13 Este 26 Sudeste 0 1004.6 0.7 75
2019-04-19 14:00:00 16.1 11 Sudeste 26 Este 0 1004.3 0.6 79
2019-04-19 13:00:00 14.8 8 Este 26 Este 0 1004.4 1.4 88
2019-04-19 12:00:00 13.2 13 Este 22 Este 0 1003.9 1.1 96
2019-04-19 11:00:00 12.5 11 Este 26 Este 0 1003.7 2 98
2019-04-19 10:00:00 12.3 8 Este 22 Este 0 1003 1.4 98
2019-04-19 09:00:00 12.1 12 Este 33 Este 0 1002.8 1.5 99
2019-04-19 08:00:00 12.2 10 Este 18 Este 0.2 1001.7 0 99
2019-04-19 07:00:00 12.2 7 Nordeste 17 Norte 0.1 1001.6 -0.3 99
2019-04-19 06:00:00 11.9 3 Norte 13 Este 0 1001.3 -0.5 98
2019-04-19 05:00:00 11.8 8 Este 21 Este 1.3 1001.7 -0.3 98
2019-04-19 04:00:00 11.7 8 Este 15 Este 1.1 1001.9 -0.6 98
2019-04-19 03:00:00 11.9 6 Este 15 Este 0.3 1001.8 -0.6 98
2019-04-19 02:00:00 11.9 0 Calma 17 Este 0 1002 -0.2 98
2019-04-19 01:00:00 11.9 8 Este 13 Este 0 1002.5 0.5 98
2019-04-19 00:00:00 11.7 5 Este 11 Este 0 1002.4 1.1 98
2019-04-18 23:00:00 11.5 5 Este 18 Este 1.6 1002.2 1.4 98
2019-04-18 22:00:00 11.8 9 Este 15 Este 0.8 1002 1.6 97
2019-04-18 21:00:00 12.1 6 Este 13 Este 0.4 1001.3 1.4 95
2019-04-18 20:00:00 12.5 9 Este 17 Sudeste 0.4 1000.8 1.4 95
2019-04-18 19:00:00 12.5 12 Este 24 Sudeste 0.9 1000.4 1.1 95
2019-04-18 18:00:00 13 14 Este 28 Este 0 999.9 0.8 89
2019-04-18 17:00:00 14.9 17 Este 33 Este 0 999.4 0.2 78
2019-04-18 16:00:00 15.4 14 Este 26 Este 0 999.3 0.2 75
2019-04-18 15:00:00 15.4 12 Este 22 Este 0 999.1 0.4 73
2019-04-18 14:00:00 15.9 10 Este 21 Nordeste 0 999.2 0.6 72
2019-04-18 13:00:00 14.3 10 Este 17 Este 0 999.1 1.4 82
2019-04-18 12:00:00 15.8 9 Sudeste 15 Sudeste 0 998.7 1.4 71
2019-04-18 11:00:00 13.8 8 Sur 15 Sur 0 998.6 2.2 79
2019-04-18 10:00:00 11.9 10 Sudoeste 18 Sudoeste 0 997.7 2 87
2019-04-18 09:00:00 11 11 Sur 17 Sudeste 0 997.3 2 93
2019-04-18 08:00:00 9.8 4 Sudeste 17 Sudoeste 0 996.4 1.2 93
2019-04-18 07:00:00 11 6 Oeste 8 Sudoeste 0 995.7 0.4 89
2019-04-18 06:00:00 11.7 5 Sudoeste 13 Sudoeste 0 995.3 0.7 86
2019-04-18 05:00:00 11.6 6 Sudoeste 17 Oeste 0 995.2 0.8 89
2019-04-18 04:00:00 12 13 Oeste 24 Oeste 0 995.3 1.8 87
2019-04-18 03:00:00 11.7 14 Oeste 22 Oeste 0 994.6 1.3 88
2019-04-18 02:00:00 11.5 10 Oeste 28 Oeste 0 994.4 1.3 90
2019-04-18 01:00:00 12.6 15 Oeste 26 Oeste 0.2 993.5 1 81
2019-04-18 00:00:00 14 13 Oeste 24 Oeste 0 993.3 1.4 67
2019-04-17 23:00:00 14.4 15 Oeste 30 Oeste 0 993.1 1.9 64
2019-04-17 22:00:00 14 19 Oeste 32 Oeste 0 992.5 1.4 65
2019-04-17 21:00:00 14 17 Noroeste 30 Oeste 0 991.9 1.7 69
2019-04-17 20:00:00 14.4 19 Noroeste 35 Noroeste 0 991.2 0.8 68
2019-04-17 19:00:00 15.3 20 Oeste 37 Oeste 0 991.1 0.6 66
2019-04-17 18:00:00 16.2 21 Oeste 32 Noroeste 0 990.2 -0.3 67
2019-04-17 17:00:00 16.6 14 Noroeste 26 Oeste 0 990.4 -0.5 67
2019-04-17 16:00:00 15.4 9 Noroeste 17 Noroeste 0 990.5 -0.1 72
2019-04-17 15:00:00 15.3 11 Noroeste 21 Oeste 0 990.5 -0.3 72
2019-04-17 14:00:00 15.4 17 Noroeste 22 Oeste 0 990.9 0.3 73
2019-04-17 13:00:00 20.4 0 Calma 21 Sudoeste 0 990.6 -0.3 61
2019-04-17 12:00:00 17.7 9 Sur 15 Sur 0 990.8 0.1 62
2019-04-17 11:00:00 17.2 8 Sudeste 22 Sur 0 990.6 0.1 70
2019-04-17 10:00:00 14.9 14 Sur 33 Sur 0 990.9 0.2 62
2019-04-17 09:00:00 13.3 15 Sur 33 Sur 0 990.7 -0.6 70
2019-04-17 08:00:00 12.4 15 Sur 32 Sudeste 0 990.5 -1.3 76
2019-04-17 07:00:00 11.6 17 Sur 24 Sur 0 990.7 -2.2 83
2019-04-17 06:00:00 11.2 6 Sur 18 Sur 0 991.3 -2.6 85
2019-04-17 05:00:00 10.6 9 Sur 17 Sudeste 0 991.8 -3 92
2019-04-17 04:00:00 9.9 8 Sudeste 13 Este 0 992.9 -3 94
2019-04-17 03:00:00 9.9 9 Sudeste 15 Sudeste 0 993.9 -2.4 96
2019-04-17 02:00:00 10.4 13 Sudeste 15 Sudeste 0 994.8 -2.3 95
2019-04-17 01:00:00 11.2 10 Sur 18 Sudeste 0 995.9 -1.8 93
2019-04-17 00:00:00 11.3 12 Sudeste 21 Sudeste 0 996.3 -1.8 93
2019-04-16 23:00:00 11.6 12 Sudeste 21 Sudeste 0 997.1 -1.1 92
2019-04-16 22:00:00 12.1 12 Sudeste 21 Este 0 997.7 -0.6 88
2019-04-16 21:00:00 12.5 10 Este 24 Este 0 998.1 -0.8 86
2019-04-16 20:00:00 13.3 14 Este 26 Este 0 998.2 -1.5 82
2019-04-16 19:00:00 14.4 15 Este 28 Sudeste 0 998.3 -1.8 76
2019-04-16 18:00:00 15 15 Este 33 Este 0 998.9 -1.6 69
2019-04-16 17:00:00 15.5 22 Este 35 Este 0 999.7 -1.6 63
2019-04-16 16:00:00 15.2 22 Este 39 Este 0 1000.1 -1.8 66
2019-04-16 15:00:00 15.8 23 Este 45 Este 0 1000.5 -1.6 60
2019-04-16 14:00:00 15.9 11 Este 30 Sudeste 0 1001.3 -1.1 62
2019-04-16 13:00:00 15.8 10 Este 24 Este -- 1001.9 -0.8 63
2019-04-16 12:00:00 15.3 12 Sudeste 22 Sudeste 0 1002.1 -0.7 68
2019-04-16 11:00:00 14.5 13 Este 21 Sudeste 0 1002.4 -0.3 72
2019-04-16 10:00:00 10.2 14 Sur 22 Sur 0 1002.7 0.2 87
2019-04-16 09:00:00 9 13 Sur 28 Sudoeste 0 1002.8 0.1 92
2019-04-16 08:00:00 7.7 16 Sudoeste 26 Sudoeste 0 1002.7 0.1 95
2019-04-16 07:00:00 7.8 15 Sudoeste 26 Sudoeste 0 1002.5 -0.4 97
2019-04-16 06:00:00 8.1 13 Sudoeste 22 Sudoeste 0 1002.7 -0.4 97
2019-04-16 05:00:00 8.8 12 Sudoeste 17 Sudoeste 0 1002.6 -0.4 95
2019-04-16 04:00:00 8.7 12 Sudoeste 18 Sur 0 1002.9 -0.1 95
2019-04-16 03:00:00 9.2 13 Sudoeste 17 Sudoeste 0 1003.1 0.2 93
2019-04-16 02:00:00 8.9 10 Sudoeste 13 Sudoeste 0 1003 0.6 94
2019-04-16 01:00:00 9.2 3 Sudoeste 9 Sudoeste 0 1003 1.4 93
2019-04-16 00:00:00 10 5 Sur 18 Oeste 0 1002.9 2.4 89
2019-04-15 23:00:00 11.2 13 Oeste 30 Oeste 0 1002.4 3.2 88
2019-04-15 22:00:00 11.6 18 Noroeste 39 Oeste 0 1001.6 3.6 87
2019-04-15 21:00:00 11.9 23 Oeste 39 Noroeste 0 1000.5 3.6 89
2019-04-15 20:00:00 11.8 22 Oeste 45 Oeste 0.6 999.2 4 91
2019-04-15 19:00:00 12 22 Noroeste 48 Oeste 0.3 998 3.6 94
2019-04-15 18:00:00 12.3 31 Noroeste 48 Oeste 0 996.9 3.4 90
2019-04-15 17:00:00 13.9 11 Oeste 32 Oeste 0 995.2 1.9 85
2019-04-15 16:00:00 14.7 23 Oeste 39 Oeste 1.6 994.4 2 70
2019-04-15 15:00:00 14.6 13 Oeste 33 Noroeste 0.1 993.5 0.9 83
2019-04-15 14:00:00 14.2 13 Noroeste 41 Noroeste 0 993.3 1.2 89
2019-04-15 13:00:00 15.6 3 Noroeste 13 Norte 0.2 992.4 1.7 94
2019-04-15 12:00:00 14 6 Noroeste 32 Noroeste 3.9 992.6 1.5 98
2019-04-15 11:00:00 14.2 17 Noroeste 46 Oeste 0.8 992.1 0.5 96
2019-04-15 10:00:00 17.2 16 Sur 26 Sur 0 990.7 -1.4 74
2019-04-15 09:00:00 16.6 14 Sur 26 Sur 0 991.1 -2.1 75
2019-04-15 08:00:00 15.9 15 Sur 30 Sur 0 991.6 -2.4 79
2019-04-15 07:00:00 15.6 14 Sur 24 Sur 0 992.1 -3 81
2019-04-15 06:00:00 15.3 14 Sudoeste 22 Sur 0 993.2 -2.5 82
2019-04-15 05:00:00 15.3 13 Sudoeste 21 Sur 0 994 -2.6 81
2019-04-15 04:00:00 15.9 10 Sur 18 Sur 0 995.1 -2.4 78
2019-04-15 03:00:00 14.7 8 Sudeste 13 Sudoeste 0 995.7 -2.3 86
2019-04-15 02:00:00 14.4 11 Sudeste 17 Sudeste 0 996.6 -1.8 86
2019-04-15 01:00:00 14.3 9 Sudeste 17 Sudeste 0 997.5 -0.9 86
2019-04-15 00:00:00 15 14 Sudeste 24 Sudeste 0 998 -0.3 83
2019-04-14 23:00:00 16.2 15 Sudeste 21 Sudeste 0 998.4 0.1 79
2019-04-14 22:00:00 16.1 18 Sudeste 22 Este 0 998.4 -0.1 80
2019-04-14 21:00:00 17.2 17 Sudeste 24 Este 0 998.3 -0.5 75
2019-04-14 20:00:00 19 17 Este 24 Sudeste 0 998.3 -1.2 68
2019-04-14 19:00:00 20.1 13 Este 21 Este 0 998.5 -1.9 66
2019-04-14 18:00:00 20.4 11 Este 22 Este 0 998.8 -1.9 64
2019-04-14 17:00:00 20.8 11 Este 18 Este 0 999.5 -1.6 63
2019-04-14 16:00:00 20.7 10 Este 18 Nordeste 0 1000.4 -0.8 65
2019-04-14 15:00:00 19.8 10 Este 17 Este 0 1000.7 -0.2 65
2019-04-14 14:00:00 19.3 9 Este 18 Este 0 1001.1 0.6 65
2019-04-14 13:00:00 18.7 6 Nordeste 15 Norte 0 1001.2 0.9 67
2019-04-14 12:00:00 19.5 6 Norte 13 Norte 0 1000.9 0.4 64
2019-04-14 11:00:00 19.9 5 Oeste 13 Sudoeste 0 1000.5 0 64
2019-04-14 10:00:00 17.3 8 Sudoeste 24 Sudoeste 0 1000.3 0 70
2019-04-14 09:00:00 14.9 10 Sudoeste 15 Sur 0 1000.5 -0.3 73
2019-04-14 08:00:00 14.6 9 Sudoeste 22 Sudoeste 0 1000.5 -0.5 72
2019-04-14 07:00:00 14.4 7 Sudoeste 11 Sur 0 1000.3 -1.2 74
2019-04-14 06:00:00 13.7 6 Sur 9 Sur 0 1000.8 -0.8 76
2019-04-14 05:00:00 13.3 8 Sur 11 Sur 0 1001 -1.3 76
2019-04-14 04:00:00 13.5 3 Sudoeste 8 Sur 0 1001.5 -0.8 73
2019-04-14 03:00:00 14 0 Calma 8 Oeste 0 1001.6 -0.8 70
2019-04-14 02:00:00 14.5 6 Sudoeste 15 Sur 0 1002.3 -0.6 70
2019-04-14 01:00:00 13.7 7 Sudoeste 11 Sur 0 1002.3 -0.2 73
2019-04-14 00:00:00 12.5 7 Sur 9 Sur 0 1002.4 0.4 82
2019-04-13 23:00:00 12.8 8 Noroeste 18 Oeste 0 1002.9 1.3 83
2019-04-13 22:00:00 14.4 2 Oeste 11 Sudeste 0 1002.5 1 67
2019-04-13 21:00:00 15.3 10 Sudeste 15 Sudeste 0 1002 0.5 65
2019-04-13 20:00:00 16.4 13 Sudeste 18 Este 0 1001.6 -0.2 57
2019-04-13 19:00:00 18.2 15 Este 21 Este 0 1001.5 -0.7 51
2019-04-13 18:00:00 18.4 8 Este 17 Este 0 1001.5 -0.6 57
2019-04-13 17:00:00 17.5 7 Este 15 Nordeste 0 1001.8 -0.6 62
2019-04-13 16:00:00 17.3 8 Este 18 Este 0 1002.2 -0.4 68
2019-04-13 15:00:00 17.8 8 Nordeste 17 Este 0 1002.1 -0.7 70
2019-04-13 14:00:00 17.6 6 Este 15 Norte 0 1002.4 -0.5 70
2019-04-13 13:00:00 16.2 8 Norte 13 Norte 0 1002.6 -0.5 67
2019-04-13 12:00:00 16.3 5 Nordeste 13 Norte 0 1002.8 -0.5 69
2019-04-13 11:00:00 15.7 3 Oeste 11 Sur 0 1002.9 -0.5 65
2019-04-13 10:00:00 12.7 8 Sur 26 Sur 0 1003.1 0 74
2019-04-13 09:00:00 10.2 13 Sur 21 Sudoeste 0 1003.3 0.1 81
2019-04-13 08:00:00 9.1 6 Sudoeste 17 Sur 0 1003.4 0.1 84
2019-04-13 07:00:00 8.8 10 Sudoeste 15 Sudoeste 0 1003.1 -0.2 86
2019-04-13 06:00:00 8.6 4 Sudoeste 13 Sudoeste 0 1003.2 -0.5 85
2019-04-13 05:00:00 9.1 8 Sudoeste 21 Sudoeste 0 1003.3 -0.7 83
2019-04-13 04:00:00 9.4 11 Sudoeste 22 Sur 0 1003.3 -1.2 82
2019-04-13 03:00:00 9.4 15 Sur 21 Sur 0 1003.7 -0.6 83
2019-04-13 02:00:00 7.9 6 Sur 17 Sur 0 1004 -0.4 89
2019-04-13 01:00:00 8.3 10 Sur 17 Sur 0 1004.5 0.3 89
2019-04-13 00:00:00 8.7 10 Sudeste 17 Sudeste 0 1004.3 0.5 91
2019-04-12 23:00:00 8.4 13 Sudeste 22 Sudeste 0 1004.4 0.6 89
2019-04-12 22:00:00 9.3 19 Sudeste 26 Sudeste 0 1004.2 0.3 90
2019-04-12 21:00:00 11.1 18 Sudeste 28 Este 0 1003.8 0 84
2019-04-12 20:00:00 12.5 18 Este 32 Sudeste 0 1003.8 -0.2 78
2019-04-12 19:00:00 14 21 Este 32 Sudeste 0 1003.9 -1.1 70
2019-04-12 18:00:00 15 14 Este 26 Este 0 1003.8 -1.6 66
2019-04-12 17:00:00 15.3 19 Sudeste 35 Este 0 1004 -1.8 65
2019-04-12 16:00:00 14.6 15 Este 30 Este 0 1005 -1.1 69
2019-04-12 15:00:00 14.2 17 Este 30 Este 0 1005.4 -1.2 69
2019-04-12 14:00:00 14.4 15 Este 32 Este 0 1005.8 -0.4 67
2019-04-12 13:00:00 14 10 Este 22 Este 0 1006.1 -0.1 70
2019-04-12 12:00:00 13.2 7 Este 18 Este 0 1006.6 0.4 73
2019-04-12 11:00:00 11.4 5 Sudeste 17 Sur 0 1006.2 -0.1 79
2019-04-12 10:00:00 9 12 Sudoeste 18 Sudoeste 0 1006.2 0.2 88
2019-04-12 09:00:00 6.9 12 Sudoeste 15 Sur 0 1006.2 -0.1 96
2019-04-12 08:00:00 6.2 0 Calma 17 Sudoeste 0 1006.3 -0.3 96
2019-04-12 07:00:00 6.5 7 Sudoeste 17 Sudoeste 0 1006 -0.8 95
2019-04-12 06:00:00 7.2 12 Sudoeste 17 Sur 0 1006.3 -0.9 95
2019-04-12 05:00:00 7.9 12 Sur 18 Sur 0 1006.6 -0.8 95
2019-04-12 04:00:00 7.5 13 Sudoeste 17 Sudoeste 0 1006.8 -0.8 98
2019-04-12 03:00:00 6.7 9 Sudeste 11 Sudeste 0 1007.2 -0.6 97
2019-04-12 02:00:00 6.6 -- -- -- -- 0 1007.4 -0.6 98
2019-04-12 01:00:00 6.3 4 Sudeste 5 Sudeste 0 1007.6 -0.3 96
2019-04-12 00:00:00 7.2 0 Calma 5 Sur 0 1007.8 0.2 96
2019-04-11 23:00:00 7.3 5 Sudeste 5 Sudeste 0 1008 0.5 94
2019-04-11 22:00:00 9.1 0 Calma 5 Noroeste 0 1007.9 0.4 95
2019-04-11 21:00:00 10.8 2 Noroeste 9 Noroeste 0 1007.6 0.2 88
2019-04-11 20:00:00 11.5 5 Noroeste 13 Noroeste 0 1007.5 0.1 86
2019-04-11 19:00:00 12 8 Noroeste 18 Noroeste 0 1007.5 -0.2 83
2019-04-11 18:00:00 13 13 Noroeste 21 Noroeste 0 1007.4 -0.4 77
2019-04-11 17:00:00 13.3 13 Noroeste 24 Noroeste 0 1007.4 -0.4 75
2019-04-11 16:00:00 12.3 13 Noroeste 24 Noroeste 0 1007.7 -0.1 82
2019-04-11 15:00:00 12.4 18 Oeste 32 Noroeste 0 1007.8 0.2 82
2019-04-11 14:00:00 11.4 16 Noroeste 30 Oeste 0 1007.8 0.5 85
2019-04-11 13:00:00 11.9 19 Oeste 28 Noroeste 0 1007.8 0.7 82
2019-04-11 12:00:00 11.1 12 Oeste 26 Noroeste 0 1007.6 0.8 83
2019-04-11 11:00:00 10 12 Sudoeste 21 Sudoeste 0 1007.3 0.7 84
2019-04-11 10:00:00 8.5 9 Sudoeste 22 Sudoeste 0 1007.1 0.8 87
2019-04-11 09:00:00 7.1 13 Sudoeste 21 Sudoeste 0 1006.8 0.3 91
2019-04-11 08:00:00 6.9 9 Sudoeste 21 Sur 0 1006.6 0 92
2019-04-11 07:00:00 7.2 9 Sudoeste 17 Sur 0 1006.3 0 92
2019-04-11 06:00:00 7.4 9 Sudoeste 17 Oeste 0 1006.5 0.1 93
2019-04-11 05:00:00 7.8 9 Sudoeste 21 Oeste 0 1006.6 0 94
2019-04-11 04:00:00 8.1 8 Sudoeste 13 Sudoeste 0 1006.3 -0.3 93
2019-04-11 03:00:00 8.7 9 Sudoeste 15 Sudoeste 0 1006.4 -0.1 94
2019-04-11 02:00:00 8.9 8 Sudoeste 13 Sudoeste 0 1006.6 0 95
2019-04-11 01:00:00 9 8 Sudoeste 11 Sudoeste 0 1006.6 0.7 93
2019-04-11 00:00:00 9.8 7 Oeste 17 Noroeste 0 1006.5 1.4 90
2019-04-10 23:00:00 10.7 6 Noroeste 13 Oeste 0 1006.6 2 87
2019-04-10 22:00:00 10.7 4 Oeste 15 Noroeste 0.1 1005.9 1.5 88
2019-04-10 21:00:00 10.8 6 Oeste 17 Oeste 0 1005.1 1 87
2019-04-10 20:00:00 12.1 9 Noroeste 17 Oeste 0 1004.6 0.7 81
2019-04-10 19:00:00 13 12 Noroeste 18 Noroeste 0 1004.4 0.9 75
2019-04-10 18:00:00 13.4 10 Noroeste 18 Noroeste 0 1004.1 1.2 74
2019-04-10 17:00:00 13.5 11 Noroeste 18 Noroeste 0 1003.9 1.5 74
2019-04-10 16:00:00 13.5 9 Noroeste 21 Noroeste 0 1003.5 1.6 75
2019-04-10 15:00:00 13.4 5 Norte 18 Este 0 1002.9 1.9 77
2019-04-10 14:00:00 12 6 Sur 18 Noroeste 0 1002.4 2.3 84
2019-04-10 13:00:00 11.8 5 Sudoeste 22 Noroeste 0.1 1001.9 2.9 84
2019-04-10 12:00:00 11.7 10 Oeste 26 Noroeste 0 1001 3 88
2019-04-10 11:00:00 10.9 14 Oeste 39 Noroeste 0.2 1000.1 3 91
2019-04-10 10:00:00 11.1 22 Noroeste 48 Noroeste 0 999 2.2 88
2019-04-10 09:00:00 10.5 26 Noroeste 52 Oeste 1.9 998 1.4 92
2019-04-10 08:00:00 9.7 26 Oeste 46 Oeste 1.1 997.1 0.6 92
2019-04-10 07:00:00 8.4 17 Sudoeste 32 Oeste 0.2 996.8 0.4 90
2019-04-10 06:00:00 8.6 18 Sudoeste 37 Sudoeste 1 996.6 -0.6 89
2019-04-10 05:00:00 8.6 23 Sudoeste 39 Sudoeste 0.6 996.5 -0.5 86
2019-04-10 04:00:00 8.5 19 Sudoeste 33 Sudoeste 0.9 996.4 -0.4 88
2019-04-10 03:00:00 8.8 13 Sudoeste 32 Sudoeste 1.3 997.2 0.6 82
2019-04-10 02:00:00 9.5 12 Sudoeste 39 Sudoeste 0.2 997 0.7 76
2019-04-10 01:00:00 9.4 14 Sudoeste 21 Sudoeste 0 996.8 0.9 75
2019-04-10 00:00:00 9.9 12 Sudoeste 28 Oeste 0 996.6 0.9 74
2019-04-09 23:00:00 10.2 14 Sudoeste 26 Sudoeste 0 996.3 1.7 75
2019-04-09 22:00:00 10.8 19 Sudoeste 28 Sudoeste 0.4 995.9 1.3 74
2019-04-09 21:00:00 12.4 22 Oeste 37 Oeste 0.1 995.7 1.7 65
2019-04-09 20:00:00 13.6 19 Sudoeste 33 Sudoeste 0 994.6 0.8 57
2019-04-09 19:00:00 12.5 14 Oeste 45 Oeste 0 994.6 0.4 64
2019-04-09 18:00:00 15.3 17 Sudoeste 37 Sudoeste 0 994 -0.3 50
2019-04-09 17:00:00 16.6 20 Sudoeste 41 Oeste 0 993.8 -1.1 47
2019-04-09 16:00:00 14 4 Norte 24 Noroeste 0 994.2 -0.8 65
2019-04-09 15:00:00 15.5 11 Noroeste 30 Sudoeste 0 994.3 -0.8 53
2019-04-09 14:00:00 14.1 14 Sudoeste 28 Sudoeste 0 994.9 -0.1 55
2019-04-09 13:00:00 13.5 12 Oeste 24 Sur 0 995 0.1 59
2019-04-09 12:00:00 11.8 10 Sudoeste 22 Sur 0 995.1 0.8 71
2019-04-09 11:00:00 10.5 6 Sudoeste 9 Sudoeste 0 995 1 82
2019-04-09 10:00:00 8.8 8 Sudoeste 17 Sudoeste 0 994.9 1.6 88
2019-04-09 09:00:00 8.3 7 Sudoeste 17 Sudoeste 0.2 994.3 0.8 88
2019-04-09 08:00:00 8 14 Sur 22 Sur 0.1 994 0.4 89
2019-04-09 07:00:00 8.3 4 Sur 13 Oeste 0 993.3 -0.5 86
2019-04-09 06:00:00 8.5 10 Sur 15 Sur 0 993.5 -0.9 86
2019-04-09 05:00:00 8.8 9 Sur 17 Sur 0 993.6 -0.8 84
2019-04-09 04:00:00 9.3 4 Sudoeste 17 Sur 0 993.8 -0.8 80
2019-04-09 03:00:00 9 5 Sudoeste 17 Sudoeste 0 994.4 -0.7 84
2019-04-09 02:00:00 9.2 12 Sur 24 Sudoeste 0 994.4 -1.2 84
2019-04-09 01:00:00 8.6 11 Sudoeste 18 Sudoeste 0 994.6 -1.1 87
2019-04-09 00:00:00 8.3 15 Sudeste 18 Sudeste 0 995.1 0.2 89
2019-04-08 23:00:00 9.3 0 Calma 15 Sudoeste 0 995.6 0.3 85
2019-04-08 22:00:00 10.5 10 Sudoeste 26 Sudeste 0 995.7 0.1 79
2019-04-08 21:00:00 10.2 24 Sudeste 32 Sudeste 0 994.9 -0.8 81
2019-04-08 20:00:00 11.2 22 Sudeste 30 Este 0 995.3 0.3 78
2019-04-08 19:00:00 12.5 7 Sudeste 18 Este 0 995.6 0.4 70
2019-04-08 18:00:00 13 4 Norte 18 Este 0 995.7 0.4 66
2019-04-08 17:00:00 14.6 5 Este 22 Este 0 995 -0.7 61
2019-04-08 16:00:00 15.4 9 Nordeste 21 Este 0 995.2 -0.7 53
2019-04-08 15:00:00 14.6 9 Norte 26 Noroeste 0 995.3 -0.7 65
2019-04-08 14:00:00 14.7 13 Noroeste 28 Oeste 0 995.7 0 63
2019-04-08 13:00:00 14.2 15 Oeste 28 Oeste 0 995.9 0.2 68
2019-04-08 12:00:00 13.7 7 Noroeste 22 Sudoeste 0 996 0.5 62
2019-04-08 11:00:00 13.6 12 Sudoeste 21 Sudoeste 0 995.7 0.9 64
2019-04-08 10:00:00 11.7 13 Sudoeste 21 Sudoeste 0 995.7 1.3 71
2019-04-08 09:00:00 8.9 10 Sudoeste 15 Sudoeste 0 995.5 1.6 93
2019-04-08 08:00:00 10.2 10 Oeste 17 Oeste 0 994.8 1.2 90
2019-04-08 07:00:00 10.1 8 Oeste 13 Oeste 0 994.4 1.3 90
2019-04-08 06:00:00 10.6 8 Oeste 28 Oeste 0 993.9 2.1 87
2019-04-08 05:00:00 10.1 19 Oeste 45 Oeste 1.3 993.6 2.2 90
2019-04-08 04:00:00 10.8 21 Oeste 35 Oeste 0 993.1 1.2 95
2019-04-08 03:00:00 9.6 13 Sur 21 Sur 0 991.8 -0.1 86
2019-04-08 02:00:00 9.2 13 Sudeste 17 Sudeste 0.5 991.4 -0.7 94
2019-04-08 01:00:00 9 9 Sudeste 17 Sudeste 0.2 991.9 0 94
2019-04-08 00:00:00 9.1 12 Sudeste 21 Sudeste 0 991.9 -0.9 94
2019-04-07 23:00:00 9.2 7 Sudoeste 17 Sudoeste 0 992.1 -1.7 90
2019-04-07 22:00:00 8.9 2 Norte 28 Sudeste 0 991.9 -1.6 94
2019-04-07 21:00:00 9.4 16 Sudeste 22 Sudeste 0.9 992.8 -0.4 91
2019-04-07 20:00:00 10.1 10 Sur 22 Sudeste 0.8 993.8 0.8 85
2019-04-07 19:00:00 11.8 18 Sudeste 24 Sudeste 0 993.5 0.2 67
2019-04-07 18:00:00 12.1 9 Este 22 Este 0 993.2 -0.4 66
2019-04-07 17:00:00 12.9 11 Este 18 Este 0 993 -0.7 64
2019-04-07 16:00:00 13.1 8 Nordeste 18 Norte 0 993.3 -0.6 61
2019-04-07 15:00:00 13.1 9 Norte 21 Norte 0 993.6 -0.3 59
2019-04-07 14:00:00 13.6 9 Noroeste 18 Norte 0 993.7 -0.2 59
2019-04-07 13:00:00 13 9 Noroeste 21 Oeste 0 993.9 0.4 59
2019-04-07 12:00:00 12.8 12 Oeste 26 Sudoeste 0 993.9 0.7 56
2019-04-07 11:00:00 11.6 16 Sudoeste 28 Sudoeste 0 993.9 1.4 61
2019-04-07 10:00:00 9.3 17 Sudoeste 30 Sudoeste 0 993.5 1.8 66
2019-04-07 09:00:00 7.5 18 Sudoeste 32 Sudoeste 0 993.2 2.2 67
2019-04-07 08:00:00 7.5 17 Sudoeste 30 Sudoeste 0 992.5 2 68
2019-04-07 07:00:00 7.3 16 Sudoeste 28 Sudoeste 0 991.7 1.5 71
2019-04-07 06:00:00 7.2 15 Sudoeste 28 Sudoeste 0 991 1.2 74
2019-04-07 05:00:00 7.4 17 Sudoeste 32 Oeste 0 990.5 1.2 78
2019-04-07 04:00:00 7.2 13 Sudoeste 39 Oeste 1 990.2 1.3 84
2019-04-07 03:00:00 7.5 13 Sudoeste 33 Sudoeste 0.1 989.8 1.3 80
2019-04-07 02:00:00 7.5 18 Sudoeste 32 Sudoeste 0.1 989.3 1 79
2019-04-07 01:00:00 7.5 17 Sudoeste 45 Oeste 0 988.9 1.1 80
2019-04-07 00:00:00 7.2 15 Sudoeste 30 Sudoeste 0 988.5 1.1 85
2019-04-06 23:00:00 6.9 18 Sudoeste 41 Oeste 0.9 988.3 1.2 85
2019-04-06 22:00:00 6.7 18 Sudoeste 32 Sudoeste 1.3 987.8 1.7 90
2019-04-06 21:00:00 6.7 15 Sudoeste 30 Sudoeste 6.3 987.4 2.6 94
2019-04-06 20:00:00 6.7 12 Sudoeste 42 Oeste 4.2 987.1 2.9 92
2019-04-06 19:00:00 8.5 33 Oeste 63 Oeste 0 986.1 2.5 79
2019-04-06 18:00:00 9.6 23 Oeste 39 Oeste 0.3 984.8 1.2 80
2019-04-06 17:00:00 8 13 Sudoeste 42 Noroeste 1.4 984.2 1.4 88
2019-04-06 16:00:00 10.3 5 Norte 26 Noroeste 0 983.6 1.2 77
2019-04-06 15:00:00 8.7 9 Oeste 39 Oeste 0.5 983.6 1.3 84
2019-04-06 14:00:00 10.7 9 Noroeste 18 Noroeste 0.2 982.8 1.5 74
2019-04-06 13:00:00 11.9 7 Sudoeste 17 Sur 0.2 982.4 1.3 65
2019-04-06 12:00:00 10 6 Sudoeste 17 Noroeste 0 982.3 1.2 75
2019-04-06 11:00:00 9.2 8 Sudoeste 18 Sudoeste 0 981.3 0.1 70
2019-04-06 10:00:00 8.1 9 Sur 21 Sur 0 981.1 -0.2 74
2019-04-06 09:00:00 5.9 9 Sudeste 13 Sudeste 0 981.1 -0.4 90
2019-04-06 08:00:00 5.2 8 Sudeste -- -- 0 981.2 -0.9 84
2019-04-06 07:00:00 7 6 Sur 17 Sur 0 981.3 -1.2 80
2019-04-06 06:00:00 7.5 9 Sudeste 18 Sur 0 981.5 -1.4 74
2019-04-06 05:00:00 7.3 9 Sur 15 Sur 0 982.1 -1.2 73
2019-04-06 04:00:00 7.1 8 Sudoeste 15 Sudoeste 0 982.5 -1.3 72
2019-04-06 03:00:00 7.1 9 Sudoeste 24 Sudoeste 0 982.9 -1.1 73
2019-04-06 02:00:00 7.5 15 Sur 28 Sur 0 983.3 -0.7 72
2019-04-06 01:00:00 7.7 18 Sudoeste 28 Sudoeste 0 983.8 0.1 71
2019-04-06 00:00:00 7.2 14 Sudoeste 22 Sudoeste 0 984 1 75
2019-04-05 23:00:00 7.2 14 Sudoeste 22 Sudoeste 0 984 1 78
2019-04-05 22:00:00 7 10 Sudoeste 18 Sudoeste 0 983.7 0.7 79
2019-04-05 21:00:00 7.9 11 Sudoeste 22 Sur 0 983 1.5 76
2019-04-05 20:00:00 9.6 13 Sudoeste 28 Oeste 0 983 1.9 73
2019-04-05 19:00:00 8.1 24 Oeste 52 Oeste 0.6 983 2.2 80
2019-04-05 18:00:00 11.2 15 Oeste 42 Oeste 1.6 981.5 0.8 69
2019-04-05 17:00:00 10.6 8 Nordeste 21 Este 0.1 981.1 0.4 73
2019-04-05 16:00:00 12 6 Este 24 Norte 0 980.8 -0.1 65
2019-04-05 15:00:00 13.8 8 Este 18 Sudeste 0 980.7 -0.8 54
2019-04-05 14:00:00 12.1 10 Nordeste 18 Este 0 980.7 -0.5 61
2019-04-05 13:00:00 13.4 5 Oeste 21 Sur 0 980.9 0.1 50
2019-04-05 12:00:00 12 11 Sudoeste 26 Sur 0 981.5 0.9 57
2019-04-05 11:00:00 9.4 11 Sudoeste 21 Oeste 0 981.2 1 64
2019-04-05 10:00:00 7.7 11 Sudoeste 24 Sudoeste 0 980.8 1 71
2019-04-05 09:00:00 7 14 Sudoeste 21 Sudoeste 0 980.6 0.4 76
2019-04-05 08:00:00 6.7 12 Sur 21 Sudoeste 0 980.2 -0.2 80
2019-04-05 07:00:00 7 8 Sudoeste 18 Sudoeste 0 979.8 -0.7 82
2019-04-05 06:00:00 6.4 4 Sudoeste 15 Sudoeste 0 980.2 -0.6 92
2019-04-05 05:00:00 6.7 9 Sudoeste 17 Sudoeste 0 980.4 -0.4 93
2019-04-05 04:00:00 7.2 4 Sudoeste 18 Oeste 0.5 980.5 -0.3 95
2019-04-05 03:00:00 7.6 10 Oeste 17 Oeste 0.2 980.8 0 94
2019-04-05 02:00:00 7.4 2 Sudeste 8 Norte 1.2 980.8 -0.1 96
2019-04-05 01:00:00 7.6 0 Calma 15 Oeste 0.7 980.8 -0.5 92
2019-04-05 00:00:00 8.5 5 Sudoeste 13 Sur 0.3 980.8 -0.4 83
2019-04-04 23:00:00 8.3 8 Sur 13 Sudeste 0 980.9 -0.6 87
2019-04-04 22:00:00 8.3 5 Sur 11 Sudeste 0.3 981.3 -0.6 87
2019-04-04 21:00:00 8.6 9 Sudeste 17 Sudeste 0.7 981.2 -1.1 91
2019-04-04 20:00:00 9.2 5 Este 13 Este 0.4 981.5 -1.1 84
2019-04-04 19:00:00 9.4 3 Noroeste 9 Oeste 0.5 981.9 -0.9 87
2019-04-04 18:00:00 11 4 Sudoeste 28 Sudoeste 0.3 982.3 -1.4 69
2019-04-04 17:00:00 11.9 19 Sudoeste 45 Sudoeste 0 982.6 -2.1 58
2019-04-04 16:00:00 12.7 22 Sudoeste 41 Sur 0 982.8 -3.3 52
2019-04-04 15:00:00 12.9 15 Sudoeste 33 Sudoeste 0 983.7 -3.4 49
2019-04-04 14:00:00 12.3 20 Sudoeste 41 Sudoeste 0 984.7 -3.3 49
2019-04-04 13:00:00 12.5 22 Sudoeste 46 Sudoeste 0 986.1 -2.5 51
2019-04-04 12:00:00 10.8 24 Sudoeste 39 Sudoeste 0 987.1 -1.9 59
2019-04-04 11:00:00 9.4 17 Sudoeste 30 Sudoeste 0 988 -1.2 66
2019-04-04 10:00:00 7.3 18 Sudoeste 30 Sudoeste 0 988.6 -0.9 73
2019-04-04 09:00:00 5.1 18 Sudoeste 30 Sudoeste 0 989 -0.8 80
2019-04-04 08:00:00 4.7 16 Sudoeste 30 Oeste 0 989.2 -1.3 82
2019-04-04 07:00:00 4.4 16 Sudoeste 32 Sudoeste 0 989.5 -1.6 84
2019-04-04 06:00:00 4.2 14 Sudoeste 28 Sudoeste 0 989.8 -2.2 86
2019-04-04 05:00:00 3.9 18 Sudoeste 32 Sudoeste 0 990.5 -2.4 88
2019-04-04 04:00:00 4.1 22 Sudoeste 33 Sudoeste 0 991.1 -2.5 89
2019-04-04 03:00:00 4 21 Sudoeste 32 Sur 0 992 -1.5 90
2019-04-04 02:00:00 4.1 17 Sudoeste 28 Oeste 0.9 992.9 -1.1 93
2019-04-04 01:00:00 4.7 14 Sudoeste 46 Oeste 0.8 993.6 -0.3 89
2019-04-04 00:00:00 5.5 14 Sudoeste 41 Oeste 0 993.5 -0.3 82
2019-04-03 23:00:00 8 27 Oeste 52 Oeste 0.4 994 0.4 72
2019-04-03 22:00:00 7.2 26 Oeste 48 Noroeste 0.1 993.9 -0.1 80
2019-04-03 21:00:00 7.3 23 Oeste 122 Noroeste 0.1 993.8 -0.4 74
2019-04-03 20:00:00 7.9 32 Oeste 54 Oeste 0 993.6 -1.1 72
2019-04-03 19:00:00 8.7 23 Noroeste 52 Noroeste 0 994 -0.9 68
2019-04-03 18:00:00 9 39 Noroeste 65 Oeste 0.2 994.2 -1.5 68
2019-04-03 17:00:00 7.2 9 Noroeste 48 Oeste 0.1 994.7 -1 80
2019-04-03 16:00:00 7.9 34 Oeste 54 Oeste 1.8 994.9 -1.3 77
2019-04-03 15:00:00 6.3 22 Noroeste 55 Noroeste 2.5 995.7 -0.4 80
2019-04-03 14:00:00 8.6 22 Noroeste 45 Oeste 0.3 995.7 -1 81
2019-04-03 13:00:00 7.5 21 Oeste 50 Oeste 2.2 996.2 -0.5 85
2019-04-03 12:00:00 8.1 34 Oeste 52 Oeste 0.2 996.1 -0.8 80
2019-04-03 11:00:00 6.4 17 Sudoeste 61 Noroeste 1.1 996.7 -0.2 89
2019-04-03 10:00:00 7.9 22 Oeste 55 Noroeste 0.1 996.7 -0.5 79
2019-04-03 09:00:00 6.9 26 Oeste 45 Oeste 0.7 996.9 -0.3 87
2019-04-03 08:00:00 6.5 24 Oeste 52 Oeste 0.5 996.9 -1.2 86
2019-04-03 07:00:00 7 19 Oeste 46 Oeste 1.8 997.2 -1.7 89
2019-04-03 06:00:00 7.4 19 Oeste 39 Sudoeste 0.1 997.2 -2.1 83
2019-04-03 05:00:00 6.9 20 Oeste 46 Oeste 3 998.1 -2.2 87
2019-04-03 04:00:00 7.7 21 Oeste 45 Oeste 1.3 998.9 -1.8 85
2019-04-03 03:00:00 7.9 24 Oeste 55 Oeste 0.5 999.3 -1.8 83
2019-04-03 02:00:00 8.8 17 Oeste 35 Oeste 0 1000.3 -1.2 82
2019-04-03 01:00:00 8.9 23 Oeste 35 Oeste 0.1 1000.7 -0.9 80
2019-04-03 00:00:00 9.3 18 Oeste 32 Oeste 0 1001.1 -0.4 82
2019-04-02 23:00:00 9.4 15 Oeste 28 Oeste 0 1001.5 -0.1 84
2019-04-02 22:00:00 9.8 14 Noroeste 37 Noroeste 0.1 1001.6 0 77
2019-04-02 21:00:00 10.1 19 Oeste 32 Oeste 0 1001.5 -0.4 79
2019-04-02 20:00:00 9.9 12 Noroeste 37 Noroeste 0 1001.6 -0.4 89
2019-04-02 19:00:00 11.1 18 Noroeste 35 Oeste 0 1001.6 -0.3 74
2019-04-02 18:00:00 11.3 15 Noroeste 33 Oeste 0 1001.9 -0.7 75
2019-04-02 17:00:00 11.7 19 Noroeste 33 Noroeste 0 1002 -0.8 80
2019-04-02 16:00:00 12.1 17 Noroeste 32 Noroeste 0 1001.9 -1.1 79
2019-04-02 15:00:00 12.1 16 Oeste 33 Oeste 0 1002.6 -0.8 71
2019-04-02 14:00:00 12.7 18 Oeste 28 Oeste 0 1002.8 -0.6 77
2019-04-02 13:00:00 11.9 9 Sudoeste 17 Sudoeste 0 1003 -0.2 77
2019-04-02 12:00:00 10.1 10 Sudoeste 15 Sudoeste 0 1003.4 0.5 82
2019-04-02 11:00:00 9.2 11 Sudoeste 17 Sudoeste 0 1003.4 0.9 86
2019-04-02 10:00:00 8.6 6 Sudoeste 15 Sudoeste 0 1003.2 1.2 88
2019-04-02 09:00:00 8.6 10 Sudoeste 21 Oeste 0 1002.9 1.2 89
2019-04-02 08:00:00 10.1 14 Oeste 26 Oeste 0 1002.5 0.9 86
2019-04-02 07:00:00 8.7 10 Oeste 18 Oeste 0 1002 0.3 94
2019-04-02 06:00:00 7.5 12 Sudoeste 18 Sudoeste 0 1001.7 -0.2 92
2019-04-02 05:00:00 8.1 13 Sudoeste 18 Sudoeste 0 1001.6 -0.2 92
2019-04-02 04:00:00 10.2 11 Oeste 26 Oeste 0 1001.7 -0.4 91
2019-04-02 03:00:00 9.9 12 Oeste 17 Oeste 0 1001.9 0.2 95
2019-04-02 02:00:00 10.7 11 Oeste 21 Oeste 0 1001.8 0.3 93
2019-04-02 01:00:00 10.9 13 Oeste 21 Oeste 0 1002.1 1.1 97
2019-04-02 00:00:00 9.5 7 Sudoeste 9 Sudoeste 0 1001.7 1.2 98
2019-04-01 23:00:00 9.9 0 Calma 4 Oeste 0 1001.5 1.6 97
2019-04-01 22:00:00 10.4 0 Calma 5 Oeste 0 1001 1.4 96
2019-04-01 21:00:00 11.6 0 Calma 5 Noroeste 0 1000.5 0.8 94
2019-04-01 20:00:00 13.5 4 Norte 15 Nordeste 0 999.9 0.4 87
2019-04-01 19:00:00 13.9 7 Norte 17 Norte 0 999.6 -0.1 86
2019-04-01 18:00:00 13.9 8 Norte 17 Oeste 0 999.7 -0.3 84
2019-04-01 17:00:00 13.8 9 Norte 22 Norte 0 999.5 -0.7 84
2019-04-01 16:00:00 14.2 9 Norte 18 Norte 0 999.7 -0.5 81
2019-04-01 15:00:00 14.1 10 Norte 18 Noroeste 0 1000 -0.2 83
2019-04-01 14:00:00 14.3 10 Noroeste 15 Noroeste 0 1000.2 0.2 80
2019-04-01 13:00:00 14 8 Noroeste 13 Noroeste 0 1000.2 0.6 73
2019-04-01 12:00:00 13.7 7 Norte 13 Noroeste 0 1000.2 0.9 66
2019-04-01 11:00:00 12.7 4 Sudoeste 11 Sudoeste 0 1000 1.2 71
2019-04-01 10:00:00 9.8 11 Sudoeste 18 Sur 0 999.6 1.2 80
2019-04-01 09:00:00 7.8 8 Sur 21 Sudoeste 0 999.3 0.9 87
2019-04-01 08:00:00 7.5 16 Sudoeste 22 Sudoeste 0 998.8 0.2 90
2019-04-01 07:00:00 8.7 15 Sudoeste 24 Sudoeste 0 998.4 -0.4 85
2019-04-01 06:00:00 8.2 16 Sur 22 Sur 0 998.4 -0.8 90
2019-04-01 05:00:00 6.9 8 Sur 15 Sudeste 0 998.6 -0.5 91
2019-04-01 04:00:00 7.8 14 Sudeste 18 Sudeste 0 998.8 -0.3 95
2019-04-01 03:00:00 9.6 14 Sudeste 18 Sudeste 0 999.2 0 92
2019-04-01 02:00:00 9.2 8 Este 17 Sudeste 0 999.1 0 83
2019-04-01 01:00:00 8.2 12 Sudeste 17 Sudeste 0 999.1 0.4 88
2019-04-01 00:00:00 8.9 13 Sudeste 17 Sudeste 0 999.2 1.1 89
2019-03-31 23:00:00 9.7 -- -- -- -- 0 999.1 1.2 91
2019-03-31 22:00:00 12 15 Este 21 Este 0 998.7 0.9 83
2019-03-31 21:00:00 13 13 Este 22 Este 0 998.1 0.3 76
2019-03-31 20:00:00 14.2 10 Este 18 Este 0 997.9 -0.1 76
2019-03-31 19:00:00 15 11 Este 21 Nordeste 0 997.8 -0.4 72
2019-03-31 18:00:00 14.8 14 Este 26 Este 0 997.8 -1 81
2019-03-31 17:00:00 14.9 12 Este 26 Este 0 998 -1.2 82
2019-03-31 16:00:00 15 11 Este 24 Este 0 998.2 -1.4 80
2019-03-31 15:00:00 15.2 12 Este 26 Nordeste 0 998.8 -1.2 80
2019-03-31 14:00:00 15.5 11 Este 24 Este 0 999.2 -0.9 77
2019-03-31 13:00:00 15.8 10 Nordeste 21 Este 0 999.6 -0.4 74
2019-03-31 12:00:00 14.5 8 Sudeste 15 Este 0 1000 0.3 76
2019-03-31 11:00:00 13.2 6 Este 15 Este 0 1000.1 0.8 82
2019-03-31 10:00:00 10.1 5 Sudoeste 18 Sudoeste 0 1000 0.6 85
2019-03-31 09:00:00 7.9 7 Sudoeste 9 Sudoeste 0 999.7 0 96
2019-03-31 08:00:00 7.5 6 Sudoeste 13 Sudoeste 0 999.3 -0.9 94
2019-03-31 07:00:00 7.7 0 Calma -- -- 0 999.4 -1.4 97
2019-03-31 06:00:00 8.9 4 Este 5 Este 0 999.7 -1.6 97
2019-03-31 05:00:00 9.6 3 Sur -- -- 0 1000.2 -1.6 97
2019-03-31 03:00:00 10.7 4 Sudeste 5 Sur 0 1001.3 -0.7 97
2019-03-31 01:00:00 11 0 Calma 9 Noroeste 0 1001.8 -0.2 98
2019-03-31 00:00:00 11.3 6 Noroeste 18 Oeste 0 1002 0.1 97
2019-03-30 23:00:00 11.9 4 Sudoeste 15 Sur 0 1002 0.3 89
2019-03-30 22:00:00 12 10 Sudeste 15 Sudeste 0 1002 0.3 92
2019-03-30 21:00:00 12.1 9 Sudeste 13 Sudeste 0 1001.9 0.5 88
2019-03-30 20:00:00 13.2 13 Sudeste 18 Sudeste 0 1001.7 -0.2 85
2019-03-30 19:00:00 14.1 14 Sudeste 17 Este 0 1001.7 -0.5 84
2019-03-30 18:00:00 13.8 14 Este 21 Este 0 1001.4 -1 85
2019-03-30 17:00:00 13.3 8 Este 18 Este 0 1001.9 -0.9 87
2019-03-30 16:00:00 12.4 6 Nordeste 13 Norte 0 1002.2 -0.7 93
2019-03-30 15:00:00 12.1 8 Norte 13 Norte 0 1002.4 -0.9 90
2019-03-30 14:00:00 12.2 7 Norte 15 Norte 0 1002.8 -0.5 89
2019-03-30 13:00:00 12.9 9 Noroeste 15 Noroeste 0 1002.9 -0.3 80
2019-03-30 12:00:00 12.5 6 Noroeste 11 Noroeste 0 1003.3 0.3 82
2019-03-30 11:00:00 11.1 3 Norte 13 Noroeste 0 1003.3 0.4 89
2019-03-30 10:00:00 12 10 Oeste 15 Sudoeste 0 1003.2 0.1 75
2019-03-30 09:00:00 9.5 0 Calma 24 Sudoeste 0 1003 -0.3 92
2019-03-30 08:00:00 6.9 9 Sur 17 Sudeste 0 1002.9 -0.6 99
2019-03-30 07:00:00 7.5 12 Sudeste 13 Sudeste 0 1003.1 -0.5 99
2019-03-30 06:00:00 8.4 5 Sur 9 Sur 0 1003.3 -0.5 99
2019-03-30 05:00:00 8.8 0 Calma 9 Sur 0 1003.5 -0.5 99
2019-03-30 04:00:00 9.1 6 Sudoeste 9 Sudoeste 0 1003.6 -0.8 98
2019-03-30 03:00:00 9.4 4 Sudoeste 9 Sudoeste 0 1003.8 -0.8 97
2019-03-30 02:00:00 9.4 0 Calma -- -- 0 1004 -0.9 98
2019-03-30 01:00:00 8.4 0 Calma -- -- 0 1004.4 -0.6 98
2019-03-30 00:00:00 8.2 0 Calma -- -- 0 1004.6 -0.4 97
2019-03-29 23:00:00 8.5 0 Calma 5 Sudeste 0 1004.9 0.1 97
2019-03-29 22:00:00 8.6 3 Sudeste -- -- 0 1005 0.2 96
2019-03-29 21:00:00 9.2 14 Sudeste 21 Este 0 1005 0.3 94
2019-03-29 20:00:00 11 13 Este 21 Este 0 1004.8 -0.2 87
2019-03-29 19:00:00 12.6 9 Este 18 Este 0 1004.8 -0.7 79
2019-03-29 18:00:00 13.4 12 Este 22 Este 0 1004.7 -1.4 76
2019-03-29 17:00:00 13.6 12 Este 26 Este 0 1005 -1.7 78
2019-03-29 16:00:00 14.1 13 Este 24 Este 0 1005.5 -1.7 76
2019-03-29 15:00:00 14.4 13 Este 28 Nordeste 0 1006.1 -1.7 74
2019-03-29 14:00:00 14.5 11 Este 22 Nordeste 0 1006.7 -1.6 72
2019-03-29 13:00:00 14 10 Este 22 Nordeste 0 1007.2 -1.4 74
2019-03-29 12:00:00 13.3 11 Nordeste 30 Sudeste 0 1007.8 -1.1 75
2019-03-29 11:00:00 12.7 15 Sudeste 28 Este 0 1008.3 -0.6 76
2019-03-29 10:00:00 11 15 Sudeste 26 Sudeste 0 1008.6 -0.4 83
2019-03-29 09:00:00 9.6 12 Sudeste 21 Sudeste 0 1008.9 -0.3 85
2019-03-29 08:00:00 6.5 14 Sudeste 32 Sur 0 1008.9 -0.6 97
2019-03-29 07:00:00 3.6 8 Sur 9 Sur 0 1009 -0.9 96
2019-03-29 06:00:00 5.4 3 Sur 9 Sur 0 1009.2 -1.6 97
2019-03-29 05:00:00 5.5 5 Sur 11 Sur 0 1009.5 -1.6 96
2019-03-29 04:00:00 4.7 10 Sudeste 17 Sudeste 0 1009.9 -1.8 96
2019-03-29 03:00:00 4.7 10 Sudeste 13 Sudeste 0 1010.8 -1.2 96
2019-03-29 02:00:00 6 9 Sudeste 15 Sudeste 0 1011.1 -1.1 96
2019-03-29 01:00:00 6.1 12 Sudeste 18 Sudeste 0 1011.7 -0.8 95
2019-03-29 00:00:00 6.1 12 Sudeste 15 Sudeste 0 1012 -0.4 92
2019-03-28 23:00:00 7.9 11 Sudeste 22 Este 0 1012.2 0 90
2019-03-28 22:00:00 9.3 14 Sudeste 26 Este 0 1012.5 0.6 87
2019-03-28 21:00:00 10.2 17 Este 37 Este 0 1012.4 0.5 83
2019-03-28 20:00:00 10.5 22 Este 48 Sudeste 0 1012.2 0.1 82
2019-03-28 19:00:00 11.5 23 Este 45 Este 0 1011.9 -0.9 76
2019-03-28 18:00:00 12.8 30 Este 41 Este 0 1011.9 -1.6 66
2019-03-28 17:00:00 13.8 18 Este 39 Este 0 1012.1 -2 60
2019-03-28 16:00:00 14.3 23 Este 42 Este 0 1012.8 -1.6 60
2019-03-28 15:00:00 14 22 Este 41 Este 0 1013.5 -1.5 62
2019-03-28 14:00:00 14.5 19 Este 39 Este 0 1014.1 -1.3 58
2019-03-28 13:00:00 14.4 20 Este 39 Este 0 1014.4 -1.2 59
2019-03-28 12:00:00 14.1 17 Este 37 Este 0 1015 -0.5 64
2019-03-28 11:00:00 13.2 17 Este 32 Este 0 1015.4 0.1 68
2019-03-28 10:00:00 12 17 Sudeste 30 Sudeste 0 1015.6 0.8 72
2019-03-28 09:00:00 9.4 13 Sudeste 18 Sudeste 0 1015.5 0.7 79
2019-03-28 08:00:00 4.9 9 Sur 13 Sur 0 1015.3 0.5 92
2019-03-28 07:00:00 -- 11 Sudeste 15 Sudeste 0 1014.8 -0.2 --
2019-03-28 06:00:00 2.7 13 Sudeste 15 Sudeste 0 1014.8 -0.3 94
2019-03-28 05:00:00 3.7 9 Sudeste -- -- 0 1014.8 -0.6 92
2019-03-28 04:00:00 4.3 10 Sudeste 17 Sudeste 0 1015 -0.7 92
2019-03-28 03:00:00 5.2 13 Sudeste 17 Sudeste 0 1015.1 -0.4 90
2019-03-28 02:00:00 5.5 14 Sudeste 17 Sudeste 0 1015.4 0 91
2019-03-28 01:00:00 6.1 13 Sudeste 26 Sudeste 0 1015.7 0.4 89
2019-03-28 00:00:00 8 19 Sudeste 28 Sudeste 0 1015.5 0.5 84
2019-03-27 23:00:00 8 18 Sudeste 28 Sudeste 0 1015.4 1 84
2019-03-27 22:00:00 8.9 17 Este 32 Sudeste 0 1015.3 1.3 79
2019-03-27 21:00:00 9.4 20 Este 42 Este 0 1015 1.3 78
2019-03-27 20:00:00 9.8 24 Este 48 Sudeste 0 1014.4 1 77
2019-03-27 19:00:00 10.9 28 Este 48 Este 0 1014 0.4 73
2019-03-27 18:00:00 12 26 Este 46 Este 0 1013.7 0.1 69
2019-03-27 17:00:00 13.1 27 Este 50 Este 0 1013.4 -0.4 63
2019-03-27 16:00:00 13.7 30 Este 48 Este 0 1013.6 -0.3 61
2019-03-27 15:00:00 14.3 27 Este 46 Este 0 1013.6 0 61
2019-03-27 14:00:00 14.3 24 Este 45 Este 0 1013.8 0.4 62
2019-03-27 13:00:00 14 26 Este 45 Sudeste 0 1013.9 0.8 62
2019-03-27 12:00:00 14 27 Este 42 Este 0 1013.6 0.8 64
2019-03-27 11:00:00 13.3 20 Este 42 Este 0 1013.4 0.8 65
2019-03-27 10:00:00 11.6 21 Este 37 Este 0 1013.1 1 72
2019-03-27 09:00:00 10 19 Sudeste 24 Sudeste 0 1012.8 1.1 76
2019-03-27 08:00:00 7.6 16 Sudeste 24 Sudeste 0 1012.6 1.2 84
2019-03-27 07:00:00 6.2 13 Sudeste 24 Sudeste 0 1012.1 0.5 86
2019-03-27 06:00:00 7.1 14 Sudeste 21 Sudeste 0 1011.7 -0.2 85
2019-03-27 05:00:00 5.2 11 Sudeste 18 Sudeste 0 1011.4 -0.5 89
2019-03-27 04:00:00 5.4 13 Sudeste 17 Sudeste 0 1011.6 -0.4 88
2019-03-27 03:00:00 7.6 13 Sudeste 28 Este 0 1011.9 0.2 80
2019-03-27 02:00:00 7.7 18 Sudeste 33 Este 0 1011.9 0.4 81
2019-03-27 01:00:00 8.3 23 Este 46 Este 0 1012 0.7 77
2019-03-27 00:00:00 8.8 34 Este 50 Este 0 1011.7 0.6 73